sensor_id;sensor_type;location;lat;lon;timestamp;pressure;altitude;pressure_sealevel;temperature;humidity
64551;BME280;50945;44.472;-123.352;2023-04-22T00:01:32;101689.72;;;11.76;100.00
64551;BME280;50945;44.472;-123.352;2023-04-22T00:03:59;101690.59;;;11.76;100.00
64551;BME280;50945;44.472;-123.352;2023-04-22T00:06:25;101698.81;;;11.76;100.00
64551;BME280;50945;44.472;-123.352;2023-04-22T00:08:51;101697.94;;;11.76;99.36
64551;BME280;50945;44.472;-123.352;2023-04-22T00:11:17;101686.97;;;11.76;99.14
64551;BME280;50945;44.472;-123.352;2023-04-22T00:13:43;101687.16;;;11.74;99.46
64551;BME280;50945;44.472;-123.352;2023-04-22T00:16:10;101691.91;;;11.72;99.81
64551;BME280;50945;44.472;-123.352;2023-04-22T00:18:36;101691.06;;;11.72;99.81
64551;BME280;50945;44.472;-123.352;2023-04-22T00:21:03;101695.53;;;11.73;99.52
64551;BME280;50945;44.472;-123.352;2023-04-22T00:23:29;101688.63;;;11.69;99.30
64551;BME280;50945;44.472;-123.352;2023-04-22T00:25:55;101695.16;;;11.68;98.66
64551;BME280;50945;44.472;-123.352;2023-04-22T00:28:21;101690.84;;;11.65;98.42
64551;BME280;50945;44.472;-123.352;2023-04-22T00:30:47;101686.56;;;11.63;98.68
64551;BME280;50945;44.472;-123.352;2023-04-22T00:33:13;101676.75;;;11.60;99.28
64551;BME280;50945;44.472;-123.352;2023-04-22T00:35:39;101676.22;;;11.56;99.13
64551;BME280;50945;44.472;-123.352;2023-04-22T00:38:07;101679.16;;;11.55;99.42
64551;BME280;50945;44.472;-123.352;2023-04-22T00:40:33;101670.19;;;11.53;98.50
64551;BME280;50945;44.472;-123.352;2023-04-22T00:42:59;101668.19;;;11.55;98.77
64551;BME280;50945;44.472;-123.352;2023-04-22T00:45:26;101669.91;;;11.56;99.36
64551;BME280;50945;44.472;-123.352;2023-04-22T00:47:52;101661.69;;;11.56;99.79
64551;BME280;50945;44.472;-123.352;2023-04-22T00:50:19;101662.53;;;11.56;99.63
64551;BME280;50945;44.472;-123.352;2023-04-22T00:52:48;101662.22;;;11.59;99.70
64551;BME280;50945;44.472;-123.352;2023-04-22T00:55:14;101657.28;;;11.63;99.69
64551;BME280;50945;44.472;-123.352;2023-04-22T00:57:41;101654.91;;;11.68;99.75
64551;BME280;50945;44.472;-123.352;2023-04-22T01:00:07;101648.28;;;11.71;100.00
64551;BME280;50945;44.472;-123.352;2023-04-22T01:02:36;101646.78;;;11.76;100.00
64551;BME280;50945;44.472;-123.352;2023-04-22T01:05:03;101657.38;;;11.79;99.84
64551;BME280;50945;44.472;-123.352;2023-04-22T01:07:30;101644.41;;;11.82;99.49
64551;BME280;50945;44.472;-123.352;2023-04-22T01:09:56;101649.72;;;11.83;99.00
64551;BME280;50945;44.472;-123.352;2023-04-22T01:12:23;101653.31;;;11.84;100.00
64551;BME280;50945;44.472;-123.352;2023-04-22T01:14:51;101651.59;;;11.83;99.33
64551;BME280;50945;44.472;-123.352;2023-04-22T01:17:17;101643.38;;;11.83;99.17
64551;BME280;50945;44.472;-123.352;2023-04-22T01:19:44;101647.84;;;11.84;98.95
64551;BME280;50945;44.472;-123.352;2023-04-22T01:22:13;101645.94;;;11.84;99.03
64551;BME280;50945;44.472;-123.352;2023-04-22T01:24:40;101647.84;;;11.84;99.09
64551;BME280;50945;44.472;-123.352;2023-04-22T01:27:07;101645.09;;;11.84;98.64
64551;BME280;50945;44.472;-123.352;2023-04-22T01:29:36;101645.25;;;11.82;98.72
64551;BME280;50945;44.472;-123.352;2023-04-22T01:32:04;101645.56;;;11.79;98.54
64551;BME280;50945;44.472;-123.352;2023-04-22T01:34:31;101645.72;;;11.77;99.01
64551;BME280;50945;44.472;-123.352;2023-04-22T01:36:57;101644.34;;;11.73;98.93
64551;BME280;50945;44.472;-123.352;2023-04-22T01:39:23;101640.53;;;11.66;99.35
64551;BME280;50945;44.472;-123.352;2023-04-22T01:41:50;101631.78;;;11.63;99.54
64551;BME280;50945;44.472;-123.352;2023-04-22T01:44:16;101630.19;;;11.60;99.62
64551;BME280;50945;44.472;-123.352;2023-04-22T01:46:44;101626.63;;;11.59;99.45
64551;BME280;50945;44.472;-123.352;2023-04-22T01:49:10;101627.66;;;11.58;99.15
64551;BME280;50945;44.472;-123.352;2023-04-22T01:51:37;101620.28;;;11.59;99.09
64551;BME280;50945;44.472;-123.352;2023-04-22T01:54:03;101619.44;;;11.58;99.33
64551;BME280;50945;44.472;-123.352;2023-04-22T01:56:30;101608.78;;;11.55;99.71
64551;BME280;50945;44.472;-123.352;2023-04-22T01:58:56;101606.22;;;11.54;99.63
64551;BME280;50945;44.472;-123.352;2023-04-22T02:01:22;101601.75;;;11.53;99.64
64551;BME280;50945;44.472;-123.352;2023-04-22T02:03:50;101600.75;;;11.54;99.91
64551;BME280;50945;44.472;-123.352;2023-04-22T02:06:16;101594.25;;;11.55;99.29
64551;BME280;50945;44.472;-123.352;2023-04-22T02:08:42;101609.66;;;11.56;99.13
64551;BME280;50945;44.472;-123.352;2023-04-22T02:11:08;101606.06;;;11.55;99.17
64551;BME280;50945;44.472;-123.352;2023-04-22T02:13:36;101608.94;;;11.54;99.15
64551;BME280;50945;44.472;-123.352;2023-04-22T02:16:04;101605.38;;;11.53;99.71
64551;BME280;50945;44.472;-123.352;2023-04-22T02:18:31;101604.66;;;11.51;99.62
64551;BME280;50945;44.472;-123.352;2023-04-22T02:20:57;101601.41;;;11.48;99.99
64551;BME280;50945;44.472;-123.352;2023-04-22T02:23:24;101599.81;;;11.45;99.93
64551;BME280;50945;44.472;-123.352;2023-04-22T02:25:53;101598.44;;;11.41;100.00
64551;BME280;50945;44.472;-123.352;2023-04-22T02:28:19;101599.75;;;11.37;100.00
64551;BME280;50945;44.472;-123.352;2023-04-22T02:30:45;101599.41;;;11.32;100.00
64551;BME280;50945;44.472;-123.352;2023-04-22T02:33:12;101597.81;;;11.29;100.00
64551;BME280;50945;44.472;-123.352;2023-04-22T02:35:38;101597.13;;;11.27;100.00
64551;BME280;50945;44.472;-123.352;2023-04-22T02:38:05;101590.09;;;11.25;100.00
64551;BME280;50945;44.472;-123.352;2023-04-22T02:40:31;101583.06;;;11.22;100.00
64551;BME280;50945;44.472;-123.352;2023-04-22T02:42:57;101593.31;;;11.20;100.00
64551;BME280;50945;44.472;-123.352;2023-04-22T02:45:23;101598.94;;;11.18;100.00
64551;BME280;50945;44.472;-123.352;2023-04-22T02:47:49;101596.50;;;11.15;100.00
64551;BME280;50945;44.472;-123.352;2023-04-22T02:50:16;101599.41;;;11.14;100.00
64551;BME280;50945;44.472;-123.352;2023-04-22T02:52:43;101597.16;;;11.09;100.00
64551;BME280;50945;44.472;-123.352;2023-04-22T02:55:09;101589.56;;;11.03;100.00
64551;BME280;50945;44.472;-123.352;2023-04-22T02:57:35;101592.94;;;10.97;100.00
64551;BME280;50945;44.472;-123.352;2023-04-22T03:00:02;101590.50;;;10.94;100.00
64551;BME280;50945;44.472;-123.352;2023-04-22T03:02:30;101588.25;;;10.89;100.00
64551;BME280;50945;44.472;-123.352;2023-04-22T03:08:15;101583.41;;;10.83;100.00
64551;BME280;50945;44.472;-123.352;2023-04-22T03:10:41;101588.03;;;10.82;100.00
64551;BME280;50945;44.472;-123.352;2023-04-22T03:13:07;101584.59;;;10.80;100.00
64551;BME280;50945;44.472;-123.352;2023-04-22T03:15:35;101586.44;;;10.80;100.00
64551;BME280;50945;44.472;-123.352;2023-04-22T03:18:01;101583.91;;;10.78;100.00
64551;BME280;50945;44.472;-123.352;2023-04-22T03:20:28;101583.00;;;10.78;100.00
64551;BME280;50945;44.472;-123.352;2023-04-22T03:22:54;101586.63;;;10.78;100.00
64551;BME280;50945;44.472;-123.352;2023-04-22T03:25:20;101590.22;;;10.79;100.00
64551;BME280;50945;44.472;-123.352;2023-04-22T03:27:46;101585.75;;;10.78;100.00
64551;BME280;50945;44.472;-123.352;2023-04-22T03:30:13;101587.31;;;10.80;100.00
64551;BME280;50945;44.472;-123.352;2023-04-22T03:32:39;101590.06;;;10.80;100.00
64551;BME280;50945;44.472;-123.352;2023-04-22T03:35:06;101589.38;;;10.78;100.00
64551;BME280;50945;44.472;-123.352;2023-04-22T03:37:32;101590.38;;;10.77;100.00
64551;BME280;50945;44.472;-123.352;2023-04-22T03:40:00;101586.94;;;10.75;100.00
64551;BME280;50945;44.472;-123.352;2023-04-22T03:42:26;101586.94;;;10.75;100.00
64551;BME280;50945;44.472;-123.352;2023-04-22T03:44:52;101584.19;;;10.75;100.00
64551;BME280;50945;44.472;-123.352;2023-04-22T03:47:19;101574.41;;;10.73;100.00
64551;BME280;50945;44.472;-123.352;2023-04-22T03:49:45;101587.09;;;10.74;100.00
64551;BME280;50945;44.472;-123.352;2023-04-22T03:52:11;101586.94;;;10.75;100.00
64551;BME280;50945;44.472;-123.352;2023-04-22T03:54:37;101592.56;;;10.74;100.00
64551;BME280;50945;44.472;-123.352;2023-04-22T03:57:03;101581.22;;;10.69;100.00
64551;BME280;50945;44.472;-123.352;2023-04-22T03:59:29;101580.66;;;10.65;100.00
64551;BME280;50945;44.472;-123.352;2023-04-22T04:01:56;101580.13;;;10.61;100.00
64551;BME280;50945;44.472;-123.352;2023-04-22T04:04:23;101590.50;;;10.58;100.00
64551;BME280;50945;44.472;-123.352;2023-04-22T04:06:50;101591.69;;;10.55;100.00
64551;BME280;50945;44.472;-123.352;2023-04-22T04:09:16;101590.09;;;10.53;100.00
64551;BME280;50945;44.472;-123.352;2023-04-22T04:11:42;101588.22;;;10.53;100.00
64551;BME280;50945;44.472;-123.352;2023-04-22T04:14:10;101583.63;;;10.54;100.00
64551;BME280;50945;44.472;-123.352;2023-04-22T04:16:36;101574.41;;;10.55;100.00
64551;BME280;50945;44.472;-123.352;2023-04-22T04:19:03;101579.03;;;10.54;100.00
64551;BME280;50945;44.472;-123.352;2023-04-22T04:21:29;101580.03;;;10.53;100.00
64551;BME280;50945;44.472;-123.352;2023-04-22T04:23:58;101576.44;;;10.53;100.00
64551;BME280;50945;44.472;-123.352;2023-04-22T04:26:26;101572.84;;;10.52;100.00
64551;BME280;50945;44.472;-123.352;2023-04-22T04:28:52;101562.06;;;10.51;100.00
64551;BME280;50945;44.472;-123.352;2023-04-22T04:31:18;101563.94;;;10.50;100.00
64551;BME280;50945;44.472;-123.352;2023-04-22T04:33:45;101566.53;;;10.52;100.00
64551;BME280;50945;44.472;-123.352;2023-04-22T04:36:14;101560.19;;;10.51;100.00
64551;BME280;50945;44.472;-123.352;2023-04-22T04:38:40;101573.00;;;10.51;100.00
64551;BME280;50945;44.472;-123.352;2023-04-22T04:41:06;101572.16;;;10.50;100.00
64551;BME280;50945;44.472;-123.352;2023-04-22T04:43:35;101575.88;;;10.49;100.00
64551;BME280;50945;44.472;-123.352;2023-04-22T04:46:01;101572.31;;;10.49;100.00
64551;BME280;50945;44.472;-123.352;2023-04-22T04:48:27;101566.84;;;10.49;100.00
64551;BME280;50945;44.472;-123.352;2023-04-22T04:50:53;101569.56;;;10.49;100.00
64551;BME280;50945;44.472;-123.352;2023-04-22T04:53:21;101557.75;;;10.48;100.00
64551;BME280;50945;44.472;-123.352;2023-04-22T04:55:48;101556.06;;;10.47;100.00
64551;BME280;50945;44.472;-123.352;2023-04-22T04:58:14;101556.91;;;10.48;100.00
64551;BME280;50945;44.472;-123.352;2023-04-22T05:00:40;101554.16;;;10.48;100.00
64551;BME280;50945;44.472;-123.352;2023-04-22T05:03:06;101556.75;;;10.49;100.00
64551;BME280;50945;44.472;-123.352;2023-04-22T05:05:33;101547.84;;;10.47;100.00
64551;BME280;50945;44.472;-123.352;2023-04-22T05:07:59;101553.31;;;10.47;100.00
64551;BME280;50945;44.472;-123.352;2023-04-22T05:10:26;101558.63;;;10.49;100.00
64551;BME280;50945;44.472;-123.352;2023-04-22T05:12:52;101567.00;;;10.47;100.00
64551;BME280;50945;44.472;-123.352;2023-04-22T05:15:18;101552.47;;;10.46;100.00
64551;BME280;50945;44.472;-123.352;2023-04-22T05:17:44;101565.59;;;10.43;100.00
64551;BME280;50945;44.472;-123.352;2023-04-22T05:20:11;101565.03;;;10.39;100.00
64551;BME280;50945;44.472;-123.352;2023-04-22T05:22:37;101551.66;;;10.36;100.00
64551;BME280;50945;44.472;-123.352;2023-04-22T05:25:06;101550.81;;;10.36;100.00
64551;BME280;50945;44.472;-123.352;2023-04-22T05:27:32;101561.56;;;10.37;100.00
64551;BME280;50945;44.472;-123.352;2023-04-22T05:29:59;101550.81;;;10.36;100.00
64551;BME280;50945;44.472;-123.352;2023-04-22T05:32:25;101553.69;;;10.34;100.00
64551;BME280;50945;44.472;-123.352;2023-04-22T05:34:51;101553.00;;;10.32;100.00
64551;BME280;50945;44.472;-123.352;2023-04-22T05:37:17;101550.38;;;10.31;100.00
64551;BME280;50945;44.472;-123.352;2023-04-22T05:39:46;101546.22;;;10.26;100.00
64551;BME280;50945;44.472;-123.352;2023-04-22T05:42:14;101550.13;;;10.24;100.00
64551;BME280;50945;44.472;-123.352;2023-04-22T05:44:40;101545.13;;;10.19;100.00
64551;BME280;50945;44.472;-123.352;2023-04-22T05:47:07;101542.53;;;10.18;100.00
64551;BME280;50945;44.472;-123.352;2023-04-22T05:49:33;101542.38;;;10.19;100.00
64551;BME280;50945;44.472;-123.352;2023-04-22T05:52:00;101534.34;;;10.18;100.00
64551;BME280;50945;44.472;-123.352;2023-04-22T05:54:26;101540.69;;;10.18;100.00
64551;BME280;50945;44.472;-123.352;2023-04-22T05:56:54;101537.06;;;10.18;100.00
64551;BME280;50945;44.472;-123.352;2023-04-22T05:59:21;101526.31;;;10.16;100.00
64551;BME280;50945;44.472;-123.352;2023-04-22T06:01:47;101532.78;;;10.15;100.00
64551;BME280;50945;44.472;-123.352;2023-04-22T06:04:14;101526.63;;;10.13;100.00
64551;BME280;50945;44.472;-123.352;2023-04-22T06:06:40;101519.41;;;10.12;100.00
64551;BME280;50945;44.472;-123.352;2023-04-22T06:09:06;101519.56;;;10.11;100.00
64551;BME280;50945;44.472;-123.352;2023-04-22T06:11:35;101509.69;;;10.09;100.00
64551;BME280;50945;44.472;-123.352;2023-04-22T06:14:01;101514.28;;;10.09;100.00
64551;BME280;50945;44.472;-123.352;2023-04-22T06:16:27;101513.41;;;10.08;100.00
64551;BME280;50945;44.472;-123.352;2023-04-22T06:18:54;101508.81;;;10.09;100.00
64551;BME280;50945;44.472;-123.352;2023-04-22T06:21:20;101494.13;;;10.10;100.00
64551;BME280;50945;44.472;-123.352;2023-04-22T06:23:46;101490.41;;;10.11;100.00
64551;BME280;50945;44.472;-123.352;2023-04-22T06:26:12;101492.78;;;10.14;100.00
64551;BME280;50945;44.472;-123.352;2023-04-22T06:28:38;101484.44;;;10.16;100.00
64551;BME280;50945;44.472;-123.352;2023-04-22T06:31:05;101478.84;;;10.17;100.00
64551;BME280;50945;44.472;-123.352;2023-04-22T06:33:31;101474.22;;;10.18;100.00
64551;BME280;50945;44.472;-123.352;2023-04-22T06:35:58;101483.31;;;10.18;100.00
64551;BME280;50945;44.472;-123.352;2023-04-22T06:38:24;101482.59;;;10.16;100.00
64551;BME280;50945;44.472;-123.352;2023-04-22T06:40:50;101481.88;;;10.14;100.00
64551;BME280;50945;44.472;-123.352;2023-04-22T06:43:16;101482.19;;;10.11;100.00
64551;BME280;50945;44.472;-123.352;2023-04-22T06:45:43;101483.34;;;10.08;100.00
64551;BME280;50945;44.472;-123.352;2023-04-22T06:48:09;101475.31;;;10.07;100.00
64551;BME280;50945;44.472;-123.352;2023-04-22T06:50:35;101468.28;;;10.04;100.00
64551;BME280;50945;44.472;-123.352;2023-04-22T06:53:01;101472.72;;;10.05;100.00
64551;BME280;50945;44.472;-123.352;2023-04-22T06:55:27;101478.03;;;10.07;100.00
64551;BME280;50945;44.472;-123.352;2023-04-22T06:57:54;101470.16;;;10.04;100.00
64551;BME280;50945;44.472;-123.352;2023-04-22T07:00:20;101469.28;;;10.03;100.00
64551;BME280;50945;44.472;-123.352;2023-04-22T07:02:46;101468.59;;;10.01;100.00
64551;BME280;50945;44.472;-123.352;2023-04-22T07:05:14;101472.34;;;10.00;100.00
64551;BME280;50945;44.472;-123.352;2023-04-22T07:07:41;101468.75;;;10.00;100.00
64551;BME280;50945;44.472;-123.352;2023-04-22T07:10:07;101468.88;;;9.98;100.00
64551;BME280;50945;44.472;-123.352;2023-04-22T07:12:33;101464.31;;;9.99;100.00
64551;BME280;50945;44.472;-123.352;2023-04-22T07:15:01;101461.44;;;10.00;100.00
64551;BME280;50945;44.472;-123.352;2023-04-22T07:17:27;101464.47;;;9.97;100.00
64551;BME280;50945;44.472;-123.352;2023-04-22T07:19:53;101466.16;;;9.98;100.00
64551;BME280;50945;44.472;-123.352;2023-04-22T07:22:19;101464.31;;;9.99;100.00
64551;BME280;50945;44.472;-123.352;2023-04-22T07:24:46;101459.84;;;9.98;100.00
64551;BME280;50945;44.472;-123.352;2023-04-22T07:27:12;101454.22;;;9.99;100.00
64551;BME280;50945;44.472;-123.352;2023-04-22T07:29:38;101461.44;;;10.00;100.00
64551;BME280;50945;44.472;-123.352;2023-04-22T07:32:04;101463.13;;;10.01;100.00
64551;BME280;50945;44.472;-123.352;2023-04-22T07:34:31;101453.78;;;10.04;100.00
64551;BME280;50945;44.472;-123.352;2023-04-22T07:36:57;101461.97;;;10.04;100.00
64551;BME280;50945;44.472;-123.352;2023-04-22T07:39:23;101457.50;;;10.03;100.00
64551;BME280;50945;44.472;-123.352;2023-04-22T07:41:49;101454.22;;;9.99;100.00
64551;BME280;50945;44.472;-123.352;2023-04-22T07:44:16;101448.91;;;9.98;100.00
64551;BME280;50945;44.472;-123.352;2023-04-22T07:46:46;101448.91;;;9.98;100.00
64551;BME280;50945;44.472;-123.352;2023-04-22T07:49:13;101452.69;;;9.97;100.00
64551;BME280;50945;44.472;-123.352;2023-04-22T07:51:42;101444.50;;;9.97;100.00
64551;BME280;50945;44.472;-123.352;2023-04-22T07:54:08;101450.94;;;9.96;100.00
64551;BME280;50945;44.472;-123.352;2023-04-22T07:56:34;101451.09;;;9.94;100.00
64551;BME280;50945;44.472;-123.352;2023-04-22T07:59:01;101454.88;;;9.93;100.00
64551;BME280;50945;44.472;-123.352;2023-04-22T08:01:27;101449.41;;;9.93;100.00
64551;BME280;50945;44.472;-123.352;2023-04-22T08:03:54;101456.88;;;9.91;100.00
64551;BME280;50945;44.472;-123.352;2023-04-22T08:06:20;101452.88;;;9.85;100.00
64551;BME280;50945;44.472;-123.352;2023-04-22T08:08:46;101444.13;;;9.82;100.00
64551;BME280;50945;44.472;-123.352;2023-04-22T08:11:12;101441.41;;;9.82;100.00
64551;BME280;50945;44.472;-123.352;2023-04-22T08:13:38;101444.97;;;9.82;100.00
64551;BME280;50945;44.472;-123.352;2023-04-22T08:16:04;101440.41;;;9.83;100.00
64551;BME280;50945;44.472;-123.352;2023-04-22T08:18:32;101445.72;;;9.84;100.00
64551;BME280;50945;44.472;-123.352;2023-04-22T08:20:58;101438.22;;;9.86;100.00
64551;BME280;50945;44.472;-123.352;2023-04-22T08:23:24;101439.06;;;9.87;100.00
64551;BME280;50945;44.472;-123.352;2023-04-22T08:25:50;101440.81;;;9.88;100.00
64551;BME280;50945;44.472;-123.352;2023-04-22T08:28:16;101438.06;;;9.88;100.00
64551;BME280;50945;44.472;-123.352;2023-04-22T08:30:43;101432.63;;;9.88;100.00
64551;BME280;50945;44.472;-123.352;2023-04-22T08:33:09;101432.63;;;9.88;100.00
64551;BME280;50945;44.472;-123.352;2023-04-22T08:35:36;101432.63;;;9.88;100.00
64551;BME280;50945;44.472;-123.352;2023-04-22T08:38:04;101434.47;;;9.87;100.00
64551;BME280;50945;44.472;-123.352;2023-04-22T08:40:30;101433.75;;;9.85;100.00
64551;BME280;50945;44.472;-123.352;2023-04-22T08:42:57;101427.75;;;9.82;100.00
64551;BME280;50945;44.472;-123.352;2023-04-22T08:45:23;101427.03;;;9.80;100.00
64551;BME280;50945;44.472;-123.352;2023-04-22T08:47:50;101427.03;;;9.80;100.00
64551;BME280;50945;44.472;-123.352;2023-04-22T08:50:19;101423.75;;;9.76;100.00
64551;BME280;50945;44.472;-123.352;2023-04-22T08:52:47;101419.50;;;9.74;100.00
64551;BME280;50945;44.472;-123.352;2023-04-22T08:55:13;101420.47;;;9.73;100.00
64551;BME280;50945;44.472;-123.352;2023-04-22T08:57:40;101416.03;;;9.71;100.00
64551;BME280;50945;44.472;-123.352;2023-04-22T09:00:07;101416.03;;;9.71;100.00
64551;BME280;50945;44.472;-123.352;2023-04-22T09:02:37;101414.19;;;9.72;100.00
64551;BME280;50945;44.472;-123.352;2023-04-22T09:05:09;101412.28;;;9.73;100.00
64551;BME280;50945;44.472;-123.352;2023-04-22T09:07:37;101404.94;;;9.73;100.00
64551;BME280;50945;44.472;-123.352;2023-04-22T09:10:04;101395.59;;;9.76;100.00
64551;BME280;50945;44.472;-123.352;2023-04-22T09:12:30;101388.28;;;9.76;100.00
64551;BME280;50945;44.472;-123.352;2023-04-22T09:14:57;101386.38;;;9.77;100.00
64551;BME280;50945;44.472;-123.352;2023-04-22T09:17:33;101384.53;;;9.77;100.00
64551;BME280;50945;44.472;-123.352;2023-04-22T09:20:04;101380.78;;;9.78;100.00
64551;BME280;50945;44.472;-123.352;2023-04-22T09:22:41;101377.19;;;9.78;100.00
64551;BME280;50945;44.472;-123.352;2023-04-22T09:25:33;101375.16;;;9.80;100.00
64551;BME280;50945;44.472;-123.352;2023-04-22T09:28:00;101365.78;;;9.82;100.00
64551;BME280;50945;44.472;-123.352;2023-04-22T09:30:34;101359.47;;;9.82;100.00
64551;BME280;50945;44.472;-123.352;2023-04-22T09:33:05;101352.31;;;9.81;100.00
64551;BME280;50945;44.472;-123.352;2023-04-22T09:35:34;101358.78;;;9.80;100.00
64551;BME280;50945;44.472;-123.352;2023-04-22T09:38:03;101353.47;;;9.78;100.00
64551;BME280;50945;44.472;-123.352;2023-04-22T09:40:31;101344.56;;;9.76;100.00
64551;BME280;50945;44.472;-123.352;2023-04-22T09:43:00;101341.84;;;9.76;100.00
64551;BME280;50945;44.472;-123.352;2023-04-22T09:45:27;101342.69;;;9.77;100.00
64551;BME280;50945;44.472;-123.352;2023-04-22T09:47:55;101343.72;;;9.76;100.00
64551;BME280;50945;44.472;-123.352;2023-04-22T09:50:26;101339.28;;;9.75;100.00
64551;BME280;50945;44.472;-123.352;2023-04-22T09:52:57;101336.69;;;9.73;100.00
64551;BME280;50945;44.472;-123.352;2023-04-22T09:55:25;101326.81;;;9.72;100.00
64551;BME280;50945;44.472;-123.352;2023-04-22T09:57:55;101314.16;;;9.71;100.00
64551;BME280;50945;44.472;-123.352;2023-04-22T10:00:26;101321.34;;;9.72;100.00
64551;BME280;50945;44.472;-123.352;2023-04-22T10:02:52;101320.47;;;9.71;100.00
64551;BME280;50945;44.472;-123.352;2023-04-22T10:05:19;101315.00;;;9.71;100.00
64551;BME280;50945;44.472;-123.352;2023-04-22T10:07:45;101313.44;;;9.69;100.00
64551;BME280;50945;44.472;-123.352;2023-04-22T10:10:12;101307.28;;;9.67;100.00
64551;BME280;50945;44.472;-123.352;2023-04-22T10:12:38;101314.63;;;9.66;100.00
64551;BME280;50945;44.472;-123.352;2023-04-22T10:15:06;101301.84;;;9.67;100.00
64551;BME280;50945;44.472;-123.352;2023-04-22T10:17:36;101301.00;;;9.66;100.00
64551;BME280;50945;44.472;-123.352;2023-04-22T10:20:09;101293.78;;;9.65;100.00
64551;BME280;50945;44.472;-123.352;2023-04-22T10:22:39;101290.22;;;9.65;100.00
64551;BME280;50945;44.472;-123.352;2023-04-22T10:25:11;101290.22;;;9.65;100.00
64551;BME280;50945;44.472;-123.352;2023-04-22T10:27:38;101288.50;;;9.64;100.00
64551;BME280;50945;44.472;-123.352;2023-04-22T10:30:05;101290.38;;;9.63;100.00
64551;BME280;50945;44.472;-123.352;2023-04-22T10:32:31;101285.91;;;9.62;100.00
64551;BME280;50945;44.472;-123.352;2023-04-22T10:35:12;101289.50;;;9.63;100.00
64551;BME280;50945;44.472;-123.352;2023-04-22T10:37:42;101284.03;;;9.63;100.00
64551;BME280;50945;44.472;-123.352;2023-04-22T10:40:15;101281.28;;;9.63;100.00
64551;BME280;50945;44.472;-123.352;2023-04-22T10:42:49;101280.44;;;9.62;100.00
64551;BME280;50945;44.472;-123.352;2023-04-22T10:45:16;101281.47;;;9.61;100.00
64551;BME280;50945;44.472;-123.352;2023-04-22T10:47:43;101275.13;;;9.61;100.00
64551;BME280;50945;44.472;-123.352;2023-04-22T10:50:16;101278.75;;;9.61;100.00
64551;BME280;50945;44.472;-123.352;2023-04-22T10:52:44;101289.66;;;9.61;100.00
64551;BME280;50945;44.472;-123.352;2023-04-22T10:55:10;101282.63;;;9.59;100.00
64551;BME280;50945;44.472;-123.352;2023-04-22T10:57:39;101283.81;;;9.56;100.00
64551;BME280;50945;44.472;-123.352;2023-04-22T11:03:11;101285.44;;;9.49;100.00
64551;BME280;50945;44.472;-123.352;2023-04-22T11:05:38;101277.56;;;9.46;100.00
64551;BME280;50945;44.472;-123.352;2023-04-22T11:08:08;101272.41;;;9.43;100.00
64551;BME280;50945;44.472;-123.352;2023-04-22T11:10:47;101270.72;;;9.42;100.00
64551;BME280;50945;44.472;-123.352;2023-04-22T11:13:16;101276.31;;;9.40;100.00
64551;BME280;50945;44.472;-123.352;2023-04-22T11:15:45;101280.06;;;9.39;100.00
64551;BME280;50945;44.472;-123.352;2023-04-22T11:18:20;101282.94;;;9.38;100.00
64551;BME280;50945;44.472;-123.352;2023-04-22T11:20:47;101274.75;;;9.38;100.00
64551;BME280;50945;44.472;-123.352;2023-04-22T11:23:23;101273.59;;;9.40;100.00
64551;BME280;50945;44.472;-123.352;2023-04-22T11:25:58;101272.56;;;9.41;100.00
64551;BME280;50945;44.472;-123.352;2023-04-22T11:28:24;101275.28;;;9.41;100.00
64551;BME280;50945;44.472;-123.352;2023-04-22T11:30:52;101267.97;;;9.42;100.00
64551;BME280;50945;44.472;-123.352;2023-04-22T11:33:18;101275.28;;;9.41;100.00
64551;BME280;50945;44.472;-123.352;2023-04-22T11:35:47;101268.13;;;9.40;100.00
64551;BME280;50945;44.472;-123.352;2023-04-22T11:38:13;101269.97;;;9.40;100.00
64551;BME280;50945;44.472;-123.352;2023-04-22T11:40:41;101261.66;;;9.41;100.00
64551;BME280;50945;44.472;-123.352;2023-04-22T11:43:08;101256.34;;;9.40;100.00
64551;BME280;50945;44.472;-123.352;2023-04-22T11:45:35;101252.91;;;9.38;100.00
64551;BME280;50945;44.472;-123.352;2023-04-22T11:48:04;101259.56;;;9.35;100.00
64551;BME280;50945;44.472;-123.352;2023-04-22T11:50:36;101251.38;;;9.35;100.00
64551;BME280;50945;44.472;-123.352;2023-04-22T11:53:11;101246.06;;;9.33;100.00
64551;BME280;50945;44.472;-123.352;2023-04-22T11:55:40;101241.59;;;9.32;100.00
64551;BME280;50945;44.472;-123.352;2023-04-22T12:00:40;101233.06;;;9.27;100.00
64551;BME280;50945;44.472;-123.352;2023-04-22T12:05:43;101228.19;;;9.21;100.00
64551;BME280;50945;44.472;-123.352;2023-04-22T12:08:17;101231.78;;;9.22;100.00
64551;BME280;50945;44.472;-123.352;2023-04-22T12:10:46;101226.16;;;9.23;100.00
64551;BME280;50945;44.472;-123.352;2023-04-22T12:16:19;101225.31;;;9.23;100.00
64551;BME280;50945;44.472;-123.352;2023-04-22T12:18:53;101230.91;;;9.21;100.00
64551;BME280;50945;44.472;-123.352;2023-04-22T12:21:23;101225.78;;;9.18;100.00
64551;BME280;50945;44.472;-123.352;2023-04-22T12:26:47;101223.38;;;9.15;100.00
64551;BME280;50945;44.472;-123.352;2023-04-22T12:29:13;101222.81;;;9.11;100.00
64551;BME280;50945;44.472;-123.352;2023-04-22T12:31:40;101220.25;;;9.10;100.00
64551;BME280;50945;44.472;-123.352;2023-04-22T12:34:06;101224.13;;;9.07;100.00